createdAt,value
2023-01-25T00:00:31.230Z,1.30
2023-01-25T00:02:58.424Z,1.10
2023-01-25T00:05:25.676Z,1.52
2023-01-25T00:07:52.730Z,1.17
2023-01-25T00:10:20.295Z,1.10
2023-01-25T00:12:47.620Z,0.90
2023-01-25T00:15:15.042Z,1.08
2023-01-25T00:17:42.349Z,1.10
2023-01-25T00:20:11.144Z,1.20
2023-01-25T00:22:38.249Z,1.00
2023-01-25T00:25:05.956Z,1.02
2023-01-25T00:27:33.552Z,0.85
2023-01-25T00:30:00.664Z,1.10
2023-01-25T00:32:46.044Z,0.90
2023-01-25T00:35:13.613Z,1.02
2023-01-25T00:37:44.414Z,0.80
2023-01-25T00:40:13.812Z,1.20
2023-01-25T00:42:41.336Z,0.98
2023-01-25T00:45:10.825Z,1.00
2023-01-25T00:47:38.016Z,0.90
2023-01-25T00:50:07.908Z,0.82
2023-01-25T00:52:35.058Z,0.80
2023-01-25T00:55:03.110Z,0.80
2023-01-25T00:57:30.279Z,0.82
2023-01-25T00:59:57.466Z,0.80
2023-01-25T01:02:24.523Z,1.00
2023-01-25T01:04:53.414Z,0.80
2023-01-25T01:07:20.552Z,1.38
2023-01-25T01:09:47.549Z,0.73
2023-01-25T01:12:14.826Z,0.90
2023-01-25T01:14:42.424Z,0.90
2023-01-25T01:17:09.696Z,1.00
2023-01-25T01:19:36.940Z,0.80
2023-01-25T01:22:04.075Z,0.70
2023-01-25T01:24:31.419Z,0.60
2023-01-25T01:26:58.595Z,0.70
2023-01-25T01:29:25.658Z,0.90
2023-01-25T01:31:53.878Z,0.75
2023-01-25T01:34:26.345Z,1.02
2023-01-25T01:36:54.610Z,1.33
2023-01-25T01:39:21.650Z,0.70
2023-01-25T01:41:48.777Z,1.00
2023-01-25T01:44:19.010Z,1.02
2023-01-25T01:46:59.866Z,0.75
2023-01-25T01:49:32.898Z,0.52
2023-01-25T01:52:19.813Z,0.70
2023-01-25T01:55:02.972Z,0.60
2023-01-25T01:57:41.080Z,0.65
2023-01-25T02:00:14.606Z,0.50
2023-01-25T02:02:43.073Z,0.60
2023-01-25T02:05:20.800Z,0.70
2023-01-25T02:07:51.053Z,0.60
2023-01-25T02:10:21.170Z,0.60
2023-01-25T02:12:49.562Z,0.60
2023-01-25T02:15:16.672Z,0.95
2023-01-25T02:17:43.929Z,0.68
2023-01-25T02:20:51.808Z,0.68
2023-01-25T02:23:41.257Z,0.50
2023-01-25T02:26:10.287Z,0.60
2023-01-25T02:28:47.404Z,0.70
2023-01-25T02:31:14.736Z,0.75
2023-01-25T02:33:42.355Z,0.80
2023-01-25T02:36:20.123Z,0.50
2023-01-25T02:39:28.535Z,0.60
2023-01-25T02:41:55.863Z,0.57
2023-01-25T02:44:33.562Z,0.52
2023-01-25T02:47:04.014Z,0.50
2023-01-25T02:49:31.184Z,0.82
2023-01-25T02:51:58.223Z,0.70
2023-01-25T02:54:27.041Z,0.80
2023-01-25T02:56:54.756Z,0.73
2023-01-25T02:59:23.965Z,0.50
2023-01-25T03:01:55.214Z,0.60
2023-01-25T03:04:23.130Z,0.60
2023-01-25T03:06:50.585Z,0.70
2023-01-25T03:09:18.862Z,0.50
2023-01-25T03:11:48.804Z,0.60
2023-01-25T03:14:17.232Z,0.80
2023-01-25T03:16:44.271Z,0.60
2023-01-25T03:19:11.600Z,0.70
2023-01-25T03:21:40.856Z,1.00
2023-01-25T03:24:10.563Z,0.70
2023-01-25T03:27:21.632Z,1.00
2023-01-25T03:30:10.302Z,0.90
2023-01-25T03:32:38.103Z,1.25
2023-01-25T03:35:09.699Z,0.93
2023-01-25T03:37:37.217Z,1.00
2023-01-25T03:40:05.993Z,1.08
2023-01-25T03:42:33.600Z,1.30
2023-01-25T03:45:01.160Z,1.27
2023-01-25T03:47:28.750Z,1.48
2023-01-25T03:49:55.864Z,0.90
2023-01-25T03:53:20.253Z,0.93
2023-01-25T03:55:48.663Z,0.75
2023-01-25T03:58:16.854Z,0.70
2023-01-25T04:00:44.073Z,0.93
2023-01-25T04:03:11.159Z,0.60
2023-01-25T04:05:38.555Z,0.95
2023-01-25T04:08:06.083Z,0.60
2023-01-25T04:10:38.578Z,0.90
2023-01-25T04:13:07.128Z,1.08
2023-01-25T04:15:35.088Z,1.13
2023-01-25T04:18:10.455Z,0.93
2023-01-25T04:20:37.563Z,1.20
2023-01-25T04:23:04.610Z,1.27
2023-01-25T04:25:37.454Z,1.50
2023-01-25T04:28:10.445Z,1.08
2023-01-25T04:30:37.641Z,1.00
2023-01-25T04:33:05.311Z,0.80
2023-01-25T04:35:32.768Z,0.70
2023-01-25T04:38:02.223Z,1.00
2023-01-25T04:40:39.104Z,0.70
2023-01-25T04:43:06.744Z,0.80
2023-01-25T04:45:36.727Z,0.98
2023-01-25T04:48:11.223Z,1.33
2023-01-25T04:50:45.811Z,1.20
2023-01-25T04:53:14.008Z,1.80
2023-01-25T04:55:45.843Z,1.90
2023-01-25T04:58:14.276Z,1.83
2023-01-25T05:00:42.643Z,2.15
2023-01-25T05:03:11.270Z,2.05
2023-01-25T05:05:38.543Z,2.50
2023-01-25T05:08:11.243Z,2.58
2023-01-25T05:10:38.486Z,2.58
2023-01-25T05:13:38.075Z,2.42
2023-01-25T05:16:14.471Z,2.40
2023-01-25T05:18:48.548Z,1.65
2023-01-25T05:21:54.911Z,1.52
2023-01-25T05:24:22.125Z,1.90
2023-01-25T05:27:01.546Z,1.70
2023-01-25T05:29:41.534Z,1.30
2023-01-25T05:32:14.180Z,1.10
2023-01-25T05:34:41.812Z,1.30
2023-01-25T05:37:11.715Z,1.23
2023-01-25T05:39:42.200Z,1.67
2023-01-25T05:42:15.110Z,1.60
2023-01-25T05:44:43.931Z,1.70
2023-01-25T05:47:17.247Z,1.58
2023-01-25T05:49:44.961Z,1.60
2023-01-25T05:52:18.661Z,1.70
2023-01-25T05:54:45.973Z,1.52
2023-01-25T05:57:15.780Z,1.70
2023-01-25T05:59:43.154Z,1.60
2023-01-25T06:02:12.823Z,1.77
2023-01-25T06:04:41.101Z,2.20
2023-01-25T06:07:09.779Z,2.42
2023-01-25T06:09:37.333Z,1.98
2023-01-25T06:12:06.235Z,1.90
2023-01-25T06:14:33.821Z,2.67
2023-01-25T06:17:02.986Z,2.10
2023-01-25T06:20:05.739Z,2.22
2023-01-25T06:22:36.378Z,2.22
2023-01-25T06:25:03.630Z,2.28
2023-01-25T06:27:30.931Z,2.13
2023-01-25T06:29:58.041Z,1.80
2023-01-25T06:32:26.124Z,1.92
2023-01-25T06:34:53.431Z,1.50
2023-01-25T06:37:24.189Z,1.75
2023-01-25T06:39:51.347Z,1.73
2023-01-25T06:42:18.318Z,2.10
2023-01-25T06:44:45.487Z,2.00
2023-01-25T06:47:12.901Z,2.70
2023-01-25T06:49:39.895Z,2.83
2023-01-25T06:52:06.930Z,2.60
2023-01-25T06:54:34.350Z,2.25
2023-01-25T06:57:01.421Z,2.75
2023-01-25T06:59:28.369Z,2.58
2023-01-25T07:01:55.372Z,2.20
2023-01-25T07:04:22.804Z,3.00
2023-01-25T07:06:49.877Z,2.88
2023-01-25T07:09:17.135Z,2.70
2023-01-25T07:11:44.190Z,3.20
2023-01-25T07:14:11.298Z,2.83
2023-01-25T07:16:38.796Z,3.63
2023-01-25T07:19:07.174Z,3.53
2023-01-25T07:21:34.512Z,4.00
2023-01-25T07:24:03.225Z,4.30
2023-01-25T07:26:31.045Z,4.15
2023-01-25T07:28:59.462Z,3.67
2023-01-25T07:31:27.381Z,3.10
2023-01-25T07:33:56.850Z,3.28
2023-01-25T07:36:24.591Z,3.45
2023-01-25T07:38:56.114Z,3.50
2023-01-25T07:41:27.111Z,3.00
2023-01-25T07:43:54.582Z,3.70
2023-01-25T07:46:33.636Z,4.45
2023-01-25T07:49:00.786Z,4.10
2023-01-25T07:51:30.149Z,3.80
2023-01-25T07:54:02.700Z,3.88
2023-01-25T07:56:35.549Z,4.23
2023-01-25T07:59:03.053Z,4.10
2023-01-25T08:01:35.193Z,3.58
2023-01-25T08:04:03.841Z,3.70
2023-01-25T08:06:39.250Z,3.35
2023-01-25T08:09:12.355Z,3.53
2023-01-25T08:11:42.229Z,3.15
2023-01-25T08:14:09.807Z,3.67
2023-01-25T08:16:36.926Z,3.53
2023-01-25T08:19:04.509Z,3.10
2023-01-25T08:21:34.995Z,2.58
2023-01-25T08:24:07.396Z,2.70
2023-01-25T08:26:36.381Z,2.83
2023-01-25T08:29:04.425Z,2.88
2023-01-25T08:31:34.186Z,2.83
2023-01-25T08:34:01.938Z,2.30
2023-01-25T08:36:29.143Z,3.55
2023-01-25T08:38:58.724Z,3.03
2023-01-25T08:41:27.078Z,3.92
2023-01-25T08:43:55.140Z,3.38
2023-01-25T08:46:23.659Z,3.40
2023-01-25T08:48:55.302Z,3.80
2023-01-25T08:51:23.272Z,3.28
2023-01-25T08:53:50.489Z,3.13
2023-01-25T08:56:18.034Z,2.53
2023-01-25T08:58:47.487Z,3.15
2023-01-25T09:01:17.317Z,2.28
2023-01-25T09:03:46.828Z,2.28
2023-01-25T09:06:15.265Z,1.85
2023-01-25T09:08:42.619Z,1.63
2023-01-25T09:11:18.914Z,2.40
2023-01-25T09:13:46.595Z,2.08
2023-01-25T09:16:16.718Z,3.08
2023-01-25T09:18:45.331Z,2.92
2023-01-25T09:21:17.673Z,2.13
2023-01-25T09:24:05.489Z,3.10
2023-01-25T09:26:45.942Z,3.03
2023-01-25T09:31:44.261Z,4.45
2023-01-25T09:34:15.366Z,4.35
2023-01-25T09:36:42.452Z,4.30
2023-01-25T09:39:12.668Z,5.32
2023-01-25T09:41:42.665Z,4.05
2023-01-25T09:44:28.399Z,6.63
2023-01-25T09:47:36.832Z,5.65
2023-01-25T09:50:34.607Z,5.30
2023-01-25T09:53:24.527Z,6.05
2023-01-25T09:55:58.962Z,4.07
2023-01-25T09:58:37.167Z,2.63
2023-01-25T10:01:38.730Z,2.80
2023-01-25T10:04:25.040Z,5.95
2023-01-25T10:07:11.491Z,3.72
2023-01-25T10:09:50.839Z,3.63
2023-01-25T10:12:24.124Z,3.65
2023-01-25T10:17:39.733Z,1.40
2023-01-25T10:20:33.347Z,2.05
2023-01-25T10:23:06.373Z,2.38
2023-01-25T10:25:45.840Z,2.78
2023-01-25T10:28:35.572Z,2.65
2023-01-25T10:31:07.216Z,2.63
2023-01-25T10:33:40.372Z,2.67
2023-01-25T10:36:07.763Z,3.13
2023-01-25T10:38:46.389Z,2.50
2023-01-25T10:41:33.301Z,1.73
2023-01-25T10:44:20.268Z,1.92
2023-01-25T10:47:01.710Z,2.13
2023-01-25T10:49:51.163Z,2.45
2023-01-25T10:52:23.848Z,1.27
2023-01-25T10:55:07.749Z,2.50
2023-01-25T10:57:36.529Z,2.55
2023-01-25T11:00:11.192Z,1.10
2023-01-25T11:02:48.750Z,2.20
2023-01-25T11:05:18.927Z,1.85
2023-01-25T11:07:46.961Z,1.77
2023-01-25T11:10:34.079Z,2.05
2023-01-25T11:13:16.485Z,1.73
2023-01-25T11:15:49.888Z,2.08
2023-01-25T11:18:35.122Z,2.22
2023-01-25T11:23:34.800Z,1.38
2023-01-25T11:26:19.764Z,2.28
2023-01-25T11:28:50.699Z,1.42
2023-01-25T11:31:21.736Z,1.60
2023-01-25T11:33:49.355Z,1.85
2023-01-25T11:36:39.406Z,1.80
2023-01-25T11:39:21.852Z,2.20
2023-01-25T11:42:07.107Z,2.08
2023-01-25T11:45:06.820Z,1.67
2023-01-25T11:48:04.035Z,1.80
2023-01-25T11:50:47.262Z,2.03
2023-01-25T11:53:43.976Z,1.63
2023-01-25T11:56:41.125Z,1.40
2023-01-25T11:59:43.353Z,1.75
2023-01-25T12:02:25.362Z,1.50
2023-01-25T12:05:21.791Z,1.58
2023-01-25T12:08:18.265Z,1.75
2023-01-25T12:11:00.799Z,1.55
2023-01-25T12:13:47.768Z,1.55
2023-01-25T12:16:26.765Z,1.25
2023-01-25T12:19:07.857Z,1.60
2023-01-25T12:22:00.692Z,2.22
2023-01-25T12:24:59.021Z,1.60
2023-01-25T12:27:54.007Z,2.00
2023-01-25T12:30:39.107Z,1.80
2023-01-25T12:33:14.740Z,1.45
2023-01-25T12:36:00.715Z,1.25
2023-01-25T12:38:41.514Z,1.77
2023-01-25T12:41:26.213Z,1.60
2023-01-25T12:44:02.613Z,1.83
2023-01-25T12:46:42.835Z,1.35
2023-01-25T12:49:23.063Z,1.70
2023-01-25T12:51:51.999Z,1.25
2023-01-25T12:54:33.679Z,1.40
2023-01-25T12:57:06.746Z,1.10
2023-01-25T12:59:54.960Z,1.48
2023-01-25T13:02:25.037Z,1.25
2023-01-25T13:05:18.160Z,0.95
2023-01-25T13:08:04.073Z,1.50
2023-01-25T13:10:37.396Z,1.27
2023-01-25T13:13:25.611Z,1.42
2023-01-25T13:15:53.953Z,2.38
2023-01-25T13:18:36.297Z,1.13
2023-01-25T13:21:08.427Z,1.48
2023-01-25T13:23:43.985Z,1.30
2023-01-25T13:26:26.308Z,1.20
2023-01-25T13:28:55.391Z,1.30
2023-01-25T13:31:51.515Z,1.05
2023-01-25T13:34:42.783Z,1.40
2023-01-25T13:37:35.919Z,1.30
2023-01-25T13:40:21.149Z,1.02
2023-01-25T13:43:03.840Z,1.30
2023-01-25T13:45:34.714Z,1.30
2023-01-25T13:48:17.556Z,1.42
2023-01-25T13:50:49.346Z,1.20
2023-01-25T13:53:16.341Z,1.40
2023-01-25T13:55:52.146Z,0.98
2023-01-25T13:58:38.855Z,2.00
2023-01-25T14:01:14.483Z,1.38
2023-01-25T14:03:46.140Z,1.63
2023-01-25T14:06:22.776Z,1.42
2023-01-25T14:08:51.596Z,1.20
2023-01-25T14:11:30.607Z,0.95
2023-01-25T14:14:16.305Z,1.17
2023-01-25T14:16:44.125Z,1.60
2023-01-25T14:19:39.323Z,0.68
2023-01-25T14:22:19.884Z,0.70
2023-01-25T14:25:20.717Z,0.90
2023-01-25T14:27:51.811Z,0.75
2023-01-25T14:30:25.761Z,1.10
2023-01-25T14:32:55.597Z,1.20
2023-01-25T14:38:29.864Z,1.00
2023-01-25T14:41:06.729Z,1.23
2023-01-25T14:43:37.314Z,0.80
2023-01-25T14:46:24.373Z,0.80
2023-01-25T14:48:53.324Z,1.10
2023-01-25T14:51:30.672Z,0.80
2023-01-25T14:54:05.142Z,0.70
2023-01-25T14:56:42.943Z,1.00
2023-01-25T14:59:41.980Z,1.13
2023-01-25T15:02:30.695Z,1.10
2023-01-25T15:05:10.980Z,1.00
2023-01-25T15:07:50.693Z,0.98
2023-01-25T15:10:25.837Z,0.85
2023-01-25T15:13:15.301Z,1.00
2023-01-25T15:15:58.171Z,1.13
2023-01-25T15:18:45.142Z,0.98
2023-01-25T15:21:14.796Z,1.10
2023-01-25T15:23:43.633Z,0.70
2023-01-25T15:26:19.170Z,0.93
2023-01-25T15:28:47.013Z,1.15
2023-01-25T15:31:24.952Z,1.08
2023-01-25T15:33:52.314Z,0.95
2023-01-25T15:36:20.481Z,0.73
2023-01-25T15:38:48.487Z,1.20
2023-01-25T15:41:18.561Z,1.10
2023-01-25T15:43:49.660Z,0.80
2023-01-25T15:46:23.963Z,1.15
2023-01-25T15:48:52.119Z,1.40
2023-01-25T15:51:19.707Z,1.10
2023-01-25T15:53:47.300Z,0.98
2023-01-25T15:56:21.674Z,0.82
2023-01-25T15:58:54.367Z,1.10
2023-01-25T16:01:23.755Z,1.08
2023-01-25T16:03:51.248Z,1.20
2023-01-25T16:06:47.782Z,1.40
2023-01-25T16:09:19.833Z,1.20
2023-01-25T16:11:55.291Z,1.15
2023-01-25T16:14:29.182Z,1.23
2023-01-25T16:17:03.199Z,1.13
2023-01-25T16:19:31.494Z,1.10
2023-01-25T16:21:59.323Z,1.05
2023-01-25T16:24:26.511Z,0.85
2023-01-25T16:26:58.367Z,1.90
2023-01-25T16:29:26.028Z,0.82
2023-01-25T16:31:53.964Z,0.93
2023-01-25T16:34:22.181Z,0.70
2023-01-25T16:36:51.085Z,1.00
2023-01-25T16:39:23.680Z,0.80
2023-01-25T16:41:51.104Z,0.65
2023-01-25T16:44:18.282Z,0.85
2023-01-25T16:46:47.543Z,1.00
2023-01-25T16:49:23.042Z,0.70
2023-01-25T16:51:50.969Z,0.80
2023-01-25T16:54:20.149Z,0.90
2023-01-25T16:56:48.709Z,0.90
2023-01-25T16:59:17.154Z,1.25
2023-01-25T17:01:44.671Z,1.33
2023-01-25T17:04:12.850Z,1.20
2023-01-25T17:06:44.032Z,0.93
2023-01-25T17:09:22.799Z,1.38
2023-01-25T17:11:50.933Z,1.33
2023-01-25T17:14:19.281Z,1.17
2023-01-25T17:16:48.496Z,1.30
2023-01-25T17:19:17.245Z,1.20
2023-01-25T17:21:44.690Z,1.42
2023-01-25T17:24:17.562Z,1.10
2023-01-25T17:26:45.075Z,1.20
2023-01-25T17:29:13.786Z,1.20
2023-01-25T17:31:42.400Z,1.00
2023-01-25T17:34:13.625Z,0.75
2023-01-25T17:36:40.967Z,0.90
2023-01-25T17:39:08.566Z,0.70
2023-01-25T17:41:36.107Z,1.33
2023-01-25T17:44:03.560Z,0.90
2023-01-25T17:46:33.860Z,0.73
2023-01-25T17:49:02.847Z,2.30
2023-01-25T17:51:32.807Z,3.20
2023-01-25T17:54:00.445Z,3.45
2023-01-25T17:56:27.945Z,2.60
2023-01-25T17:58:55.003Z,1.90
2023-01-25T18:01:28.489Z,2.53
2023-01-25T18:06:25.854Z,2.45
2023-01-25T18:08:55.084Z,2.20
2023-01-25T18:11:27.463Z,2.30
2023-01-25T18:13:57.146Z,2.30
2023-01-25T18:16:26.572Z,2.58
2023-01-25T18:18:56.406Z,2.40
2023-01-25T18:21:26.959Z,2.53
2023-01-25T18:23:57.712Z,2.92
2023-01-25T18:26:28.343Z,2.25
2023-01-25T18:29:00.142Z,2.40
2023-01-25T18:31:27.880Z,3.13
2023-01-25T18:33:55.359Z,3.75
2023-01-25T18:36:22.497Z,5.05
2023-01-25T18:38:49.654Z,4.60
2023-01-25T18:41:18.117Z,5.60
2023-01-25T18:43:48.440Z,7.95
2023-01-25T18:46:15.818Z,5.90
2023-01-25T18:48:45.583Z,4.78
2023-01-25T18:51:14.808Z,4.03
2023-01-25T18:53:43.657Z,4.63
2023-01-25T18:56:16.937Z,4.70
2023-01-25T18:58:45.284Z,5.60
2023-01-25T19:01:14.277Z,4.35
2023-01-25T19:03:42.523Z,5.45
2023-01-25T19:06:10.059Z,5.05
2023-01-25T19:08:41.464Z,4.63
2023-01-25T19:11:14.089Z,4.72
2023-01-25T19:13:42.995Z,5.07
2023-01-25T19:16:21.934Z,5.75
2023-01-25T19:18:52.201Z,4.75
2023-01-25T19:21:21.905Z,3.90
2023-01-25T19:23:49.542Z,4.25
2023-01-25T19:26:19.195Z,4.50
2023-01-25T19:28:48.058Z,4.38
2023-01-25T19:31:21.200Z,4.85
2023-01-25T19:33:49.204Z,6.13
2023-01-25T19:36:19.291Z,5.70
2023-01-25T19:38:48.462Z,5.97
2023-01-25T19:41:23.575Z,5.50
2023-01-25T19:43:55.814Z,6.63
2023-01-25T19:46:25.686Z,6.20
2023-01-25T19:48:54.424Z,5.57
2023-01-25T19:51:22.844Z,6.10
2023-01-25T19:53:58.743Z,6.22
2023-01-25T19:56:28.211Z,6.00
2023-01-25T19:58:55.591Z,5.85
2023-01-25T20:01:25.687Z,6.13
2023-01-25T20:03:58.085Z,7.47
2023-01-25T20:06:26.522Z,5.65
2023-01-25T20:09:02.984Z,7.10
2023-01-25T20:11:33.301Z,6.70
2023-01-25T20:14:04.479Z,6.10
2023-01-25T20:16:34.007Z,6.78
2023-01-25T20:19:02.555Z,7.93
2023-01-25T20:21:31.482Z,7.78
2023-01-25T20:24:04.459Z,8.20
2023-01-25T20:26:34.830Z,7.38
2023-01-25T20:29:01.943Z,8.55
2023-01-25T20:31:34.012Z,10.20
2023-01-25T20:34:17.345Z,10.23
2023-01-25T20:36:45.693Z,9.20
2023-01-25T20:39:16.774Z,11.25
2023-01-25T20:41:44.614Z,7.30
2023-01-25T20:44:17.373Z,6.95
2023-01-25T20:46:44.947Z,7.65
2023-01-25T20:49:17.683Z,17.10
2023-01-25T20:51:45.848Z,61.05
2023-01-25T20:54:13.945Z,23.58
2023-01-25T20:56:41.050Z,12.20
2023-01-25T20:59:09.417Z,9.52
2023-01-25T21:01:40.230Z,10.63
2023-01-25T21:04:09.914Z,8.20
2023-01-25T21:06:38.912Z,10.27
2023-01-25T21:09:07.040Z,9.02
2023-01-25T21:11:35.063Z,8.95
2023-01-25T21:14:04.482Z,7.30
2023-01-25T21:16:32.129Z,6.57
2023-01-25T21:19:04.376Z,10.82
2023-01-25T21:21:34.775Z,6.85
2023-01-25T21:24:02.764Z,8.52
2023-01-25T21:26:35.222Z,18.90
2023-01-25T21:29:03.622Z,18.05
2023-01-25T21:31:34.101Z,18.50
2023-01-25T21:34:02.265Z,15.75
2023-01-25T21:36:29.558Z,13.63
2023-01-25T21:38:57.362Z,10.60
2023-01-25T21:41:30.422Z,10.90
2023-01-25T21:44:18.392Z,9.13
2023-01-25T21:47:12.505Z,7.75
2023-01-25T21:49:52.192Z,9.07
2023-01-25T21:52:19.439Z,10.07
2023-01-25T21:54:46.410Z,12.75
2023-01-25T21:57:13.480Z,12.98
2023-01-25T21:59:41.126Z,13.45
2023-01-25T22:02:12.540Z,14.63
2023-01-25T22:04:39.651Z,14.52
2023-01-25T22:07:08.764Z,15.05
2023-01-25T22:09:36.393Z,16.52
2023-01-25T22:12:03.743Z,17.23
2023-01-25T22:14:30.843Z,16.42
2023-01-25T22:16:58.222Z,15.35
2023-01-25T22:19:25.589Z,16.25
2023-01-25T22:21:52.653Z,16.20
2023-01-25T22:24:19.886Z,16.35
2023-01-25T22:26:51.748Z,15.60
2023-01-25T22:29:18.943Z,15.07
2023-01-25T22:31:45.966Z,13.75
2023-01-25T22:34:13.145Z,12.02
2023-01-25T22:36:40.159Z,12.43
2023-01-25T22:39:07.214Z,11.07
2023-01-25T22:41:37.474Z,10.60
2023-01-25T22:44:04.914Z,9.93
2023-01-25T22:46:32.087Z,9.95
2023-01-25T22:48:59.634Z,8.90
2023-01-25T22:51:29.217Z,9.13
2023-01-25T22:53:57.915Z,9.40
2023-01-25T22:56:31.926Z,9.27
2023-01-25T22:59:00.418Z,9.00
2023-01-25T23:01:34.700Z,8.75
2023-01-25T23:04:02.669Z,9.00
2023-01-25T23:06:33.242Z,8.50
2023-01-25T23:09:05.525Z,8.18
2023-01-25T23:11:37.624Z,8.77
2023-01-25T23:14:27.777Z,8.48
2023-01-25T23:17:14.795Z,7.32
2023-01-25T23:19:41.984Z,8.63
2023-01-25T23:22:08.976Z,11.55
2023-01-25T23:24:36.145Z,13.02
2023-01-25T23:27:03.168Z,12.48
2023-01-25T23:29:30.436Z,12.20
2023-01-25T23:31:57.416Z,12.77
2023-01-25T23:34:24.657Z,8.55
2023-01-25T23:36:51.722Z,8.70
2023-01-25T23:39:19.013Z,7.55
2023-01-25T23:41:46.005Z,7.90
2023-01-25T23:44:13.090Z,7.50
2023-01-25T23:46:40.235Z,6.80
2023-01-25T23:49:07.215Z,7.28
2023-01-25T23:51:34.462Z,6.75
2023-01-25T23:54:01.428Z,6.53
2023-01-25T23:56:28.627Z,7.28
2023-01-25T23:58:55.699Z,6.45
